sensor_id;sensor_type;location;lat;lon;timestamp;P1;durP1;ratioP1;P2;durP2;ratioP2
5543;SDS011;2795;47.652;13.128;2022-07-01T00:02:01;11.83;;;3.60;;
5543;SDS011;2795;47.652;13.128;2022-07-01T00:04:28;7.87;;;3.10;;
5543;SDS011;2795;47.652;13.128;2022-07-01T00:06:55;7.60;;;3.60;;
5543;SDS011;2795;47.652;13.128;2022-07-01T00:09:22;10.80;;;4.00;;
5543;SDS011;2795;47.652;13.128;2022-07-01T00:11:49;11.23;;;3.53;;
5543;SDS011;2795;47.652;13.128;2022-07-01T00:14:16;13.07;;;4.00;;
5543;SDS011;2795;47.652;13.128;2022-07-01T00:16:43;9.00;;;3.30;;
5543;SDS011;2795;47.652;13.128;2022-07-01T00:19:09;9.70;;;3.80;;
5543;SDS011;2795;47.652;13.128;2022-07-01T00:21:36;6.90;;;3.30;;
5543;SDS011;2795;47.652;13.128;2022-07-01T00:24:03;7.07;;;2.90;;
5543;SDS011;2795;47.652;13.128;2022-07-01T00:26:30;9.90;;;3.60;;
5543;SDS011;2795;47.652;13.128;2022-07-01T00:28:57;8.93;;;3.40;;
5543;SDS011;2795;47.652;13.128;2022-07-01T00:31:23;8.50;;;3.67;;
5543;SDS011;2795;47.652;13.128;2022-07-01T00:33:50;5.23;;;2.77;;
5543;SDS011;2795;47.652;13.128;2022-07-01T00:36:17;9.13;;;3.80;;
5543;SDS011;2795;47.652;13.128;2022-07-01T00:38:43;6.60;;;3.23;;
5543;SDS011;2795;47.652;13.128;2022-07-01T00:41:10;9.83;;;4.00;;
5543;SDS011;2795;47.652;13.128;2022-07-01T00:43:36;8.03;;;3.63;;
5543;SDS011;2795;47.652;13.128;2022-07-01T00:46:19;11.90;;;4.73;;
5543;SDS011;2795;47.652;13.128;2022-07-01T00:48:48;7.97;;;3.63;;
5543;SDS011;2795;47.652;13.128;2022-07-01T00:51:17;5.27;;;3.40;;
5543;SDS011;2795;47.652;13.128;2022-07-01T00:53:44;7.90;;;3.50;;
5543;SDS011;2795;47.652;13.128;2022-07-01T00:56:11;14.00;;;3.67;;
5543;SDS011;2795;47.652;13.128;2022-07-01T00:58:38;9.07;;;3.80;;
5543;SDS011;2795;47.652;13.128;2022-07-01T01:01:04;10.73;;;3.97;;
5543;SDS011;2795;47.652;13.128;2022-07-01T01:03:31;14.67;;;4.73;;
5543;SDS011;2795;47.652;13.128;2022-07-01T01:05:58;10.10;;;3.93;;
5543;SDS011;2795;47.652;13.128;2022-07-01T01:08:25;11.03;;;4.00;;
5543;SDS011;2795;47.652;13.128;2022-07-01T01:10:54;15.33;;;4.10;;
5543;SDS011;2795;47.652;13.128;2022-07-01T01:13:21;7.90;;;3.17;;
5543;SDS011;2795;47.652;13.128;2022-07-01T01:15:48;11.50;;;4.90;;
5543;SDS011;2795;47.652;13.128;2022-07-01T01:18:15;20.53;;;4.73;;
5543;SDS011;2795;47.652;13.128;2022-07-01T01:20:41;13.00;;;3.80;;
5543;SDS011;2795;47.652;13.128;2022-07-01T01:23:08;7.07;;;2.80;;
5543;SDS011;2795;47.652;13.128;2022-07-01T01:25:35;6.53;;;2.37;;
5543;SDS011;2795;47.652;13.128;2022-07-01T01:28:01;11.70;;;3.27;;
5543;SDS011;2795;47.652;13.128;2022-07-01T01:30:28;10.33;;;3.33;;
5543;SDS011;2795;47.652;13.128;2022-07-01T01:32:55;10.63;;;3.70;;
5543;SDS011;2795;47.652;13.128;2022-07-01T01:35:22;6.77;;;2.80;;
5543;SDS011;2795;47.652;13.128;2022-07-01T01:37:49;7.13;;;3.00;;
5543;SDS011;2795;47.652;13.128;2022-07-01T01:40:16;7.33;;;2.93;;
5543;SDS011;2795;47.652;13.128;2022-07-01T01:42:43;12.23;;;3.23;;
5543;SDS011;2795;47.652;13.128;2022-07-01T01:45:10;5.20;;;2.80;;
5543;SDS011;2795;47.652;13.128;2022-07-01T01:47:37;7.43;;;2.87;;
5543;SDS011;2795;47.652;13.128;2022-07-01T01:50:05;10.20;;;3.30;;
5543;SDS011;2795;47.652;13.128;2022-07-01T01:52:32;8.40;;;3.30;;
5543;SDS011;2795;47.652;13.128;2022-07-01T01:54:59;12.53;;;3.93;;
5543;SDS011;2795;47.652;13.128;2022-07-01T01:57:26;8.47;;;3.23;;
5543;SDS011;2795;47.652;13.128;2022-07-01T01:59:53;15.13;;;3.37;;
5543;SDS011;2795;47.652;13.128;2022-07-01T02:02:19;5.10;;;3.10;;
5543;SDS011;2795;47.652;13.128;2022-07-01T02:04:46;7.97;;;3.50;;
5543;SDS011;2795;47.652;13.128;2022-07-01T02:07:13;5.97;;;3.70;;
5543;SDS011;2795;47.652;13.128;2022-07-01T02:09:39;10.60;;;3.37;;
5543;SDS011;2795;47.652;13.128;2022-07-01T02:12:06;14.33;;;4.53;;
5543;SDS011;2795;47.652;13.128;2022-07-01T02:14:33;11.03;;;3.80;;
5543;SDS011;2795;47.652;13.128;2022-07-01T02:17:00;12.73;;;4.73;;
5543;SDS011;2795;47.652;13.128;2022-07-01T02:19:27;14.47;;;4.47;;
5543;SDS011;2795;47.652;13.128;2022-07-01T02:21:53;12.33;;;3.77;;
5543;SDS011;2795;47.652;13.128;2022-07-01T02:24:20;17.23;;;4.60;;
5543;SDS011;2795;47.652;13.128;2022-07-01T02:26:47;10.30;;;3.70;;
5543;SDS011;2795;47.652;13.128;2022-07-01T02:29:14;8.93;;;4.03;;
5543;SDS011;2795;47.652;13.128;2022-07-01T02:31:40;9.13;;;4.20;;
5543;SDS011;2795;47.652;13.128;2022-07-01T02:34:07;12.60;;;4.00;;
5543;SDS011;2795;47.652;13.128;2022-07-01T02:36:34;14.77;;;4.17;;
5543;SDS011;2795;47.652;13.128;2022-07-01T02:39:00;14.33;;;4.63;;
5543;SDS011;2795;47.652;13.128;2022-07-01T02:41:27;13.47;;;4.80;;
5543;SDS011;2795;47.652;13.128;2022-07-01T02:43:53;15.10;;;4.77;;
5543;SDS011;2795;47.652;13.128;2022-07-01T02:46:20;15.43;;;5.17;;
5543;SDS011;2795;47.652;13.128;2022-07-01T02:48:47;9.03;;;4.10;;
5543;SDS011;2795;47.652;13.128;2022-07-01T02:51:13;10.70;;;4.50;;
5543;SDS011;2795;47.652;13.128;2022-07-01T02:53:40;13.23;;;4.50;;
5543;SDS011;2795;47.652;13.128;2022-07-01T02:56:07;19.50;;;4.87;;
5543;SDS011;2795;47.652;13.128;2022-07-01T02:58:33;6.57;;;3.83;;
5543;SDS011;2795;47.652;13.128;2022-07-01T03:01:00;14.43;;;4.80;;
5543;SDS011;2795;47.652;13.128;2022-07-01T03:03:27;8.07;;;4.27;;
5543;SDS011;2795;47.652;13.128;2022-07-01T03:05:53;11.40;;;4.97;;
5543;SDS011;2795;47.652;13.128;2022-07-01T03:08:20;21.90;;;4.90;;
5543;SDS011;2795;47.652;13.128;2022-07-01T03:10:46;10.60;;;4.00;;
5543;SDS011;2795;47.652;13.128;2022-07-01T03:13:13;11.73;;;4.43;;
5543;SDS011;2795;47.652;13.128;2022-07-01T03:15:39;13.23;;;5.50;;
5543;SDS011;2795;47.652;13.128;2022-07-01T03:18:06;11.30;;;5.60;;
5543;SDS011;2795;47.652;13.128;2022-07-01T03:20:33;13.93;;;5.20;;
5543;SDS011;2795;47.652;13.128;2022-07-01T03:22:59;9.63;;;4.60;;
5543;SDS011;2795;47.652;13.128;2022-07-01T03:25:27;28.43;;;12.57;;
5543;SDS011;2795;47.652;13.128;2022-07-01T03:27:54;23.30;;;9.30;;
5543;SDS011;2795;47.652;13.128;2022-07-01T03:30:20;12.60;;;6.50;;
5543;SDS011;2795;47.652;13.128;2022-07-01T03:32:47;11.37;;;5.70;;
5543;SDS011;2795;47.652;13.128;2022-07-01T03:35:14;13.63;;;5.53;;
5543;SDS011;2795;47.652;13.128;2022-07-01T03:37:59;11.27;;;4.70;;
5543;SDS011;2795;47.652;13.128;2022-07-01T03:40:26;9.27;;;4.40;;
5543;SDS011;2795;47.652;13.128;2022-07-01T03:42:52;8.03;;;4.57;;
5543;SDS011;2795;47.652;13.128;2022-07-01T03:45:19;10.57;;;5.40;;
5543;SDS011;2795;47.652;13.128;2022-07-01T03:47:46;9.97;;;4.93;;
5543;SDS011;2795;47.652;13.128;2022-07-01T03:50:14;13.20;;;5.37;;
5543;SDS011;2795;47.652;13.128;2022-07-01T03:52:41;10.10;;;4.80;;
5543;SDS011;2795;47.652;13.128;2022-07-01T03:55:11;10.10;;;4.40;;
5543;SDS011;2795;47.652;13.128;2022-07-01T03:57:40;7.80;;;4.80;;
5543;SDS011;2795;47.652;13.128;2022-07-01T04:00:06;11.13;;;4.70;;
5543;SDS011;2795;47.652;13.128;2022-07-01T04:02:34;7.23;;;3.53;;
5543;SDS011;2795;47.652;13.128;2022-07-01T04:05:00;11.57;;;4.43;;
5543;SDS011;2795;47.652;13.128;2022-07-01T04:07:27;9.97;;;4.80;;
5543;SDS011;2795;47.652;13.128;2022-07-01T04:09:53;16.50;;;6.07;;
5543;SDS011;2795;47.652;13.128;2022-07-01T04:12:20;15.93;;;5.63;;
5543;SDS011;2795;47.652;13.128;2022-07-01T04:14:47;13.40;;;5.80;;
5543;SDS011;2795;47.652;13.128;2022-07-01T04:17:13;12.00;;;4.60;;
5543;SDS011;2795;47.652;13.128;2022-07-01T04:19:40;9.30;;;5.13;;
5543;SDS011;2795;47.652;13.128;2022-07-01T04:22:07;26.63;;;9.23;;
5543;SDS011;2795;47.652;13.128;2022-07-01T04:24:52;21.07;;;6.90;;
5543;SDS011;2795;47.652;13.128;2022-07-01T04:27:18;15.13;;;6.23;;
5543;SDS011;2795;47.652;13.128;2022-07-01T04:29:45;18.93;;;5.67;;
5543;SDS011;2795;47.652;13.128;2022-07-01T04:32:11;10.77;;;5.10;;
5543;SDS011;2795;47.652;13.128;2022-07-01T04:34:38;14.17;;;5.70;;
5543;SDS011;2795;47.652;13.128;2022-07-01T04:37:05;11.50;;;5.20;;
5543;SDS011;2795;47.652;13.128;2022-07-01T04:39:32;15.57;;;6.47;;
5543;SDS011;2795;47.652;13.128;2022-07-01T04:41:59;27.20;;;11.40;;
5543;SDS011;2795;47.652;13.128;2022-07-01T04:44:25;17.87;;;7.33;;
5543;SDS011;2795;47.652;13.128;2022-07-01T04:47:08;12.43;;;5.70;;
5543;SDS011;2795;47.652;13.128;2022-07-01T04:49:35;9.47;;;5.23;;
5543;SDS011;2795;47.652;13.128;2022-07-01T04:52:01;19.97;;;6.17;;
5543;SDS011;2795;47.652;13.128;2022-07-01T04:54:28;20.37;;;5.30;;
5543;SDS011;2795;47.652;13.128;2022-07-01T04:56:55;15.50;;;5.50;;
5543;SDS011;2795;47.652;13.128;2022-07-01T04:59:21;15.10;;;5.63;;
5543;SDS011;2795;47.652;13.128;2022-07-01T05:01:48;13.33;;;5.50;;
5543;SDS011;2795;47.652;13.128;2022-07-01T05:04:15;11.20;;;4.60;;
5543;SDS011;2795;47.652;13.128;2022-07-01T05:06:43;10.90;;;4.70;;
5543;SDS011;2795;47.652;13.128;2022-07-01T05:09:09;13.00;;;5.57;;
5543;SDS011;2795;47.652;13.128;2022-07-01T05:11:37;14.47;;;5.07;;
5543;SDS011;2795;47.652;13.128;2022-07-01T05:14:05;7.77;;;4.83;;
5543;SDS011;2795;47.652;13.128;2022-07-01T05:16:33;10.23;;;5.40;;
5543;SDS011;2795;47.652;13.128;2022-07-01T05:19:00;11.30;;;5.23;;
5543;SDS011;2795;47.652;13.128;2022-07-01T05:21:46;16.73;;;6.73;;
5543;SDS011;2795;47.652;13.128;2022-07-01T05:24:30;16.93;;;5.90;;
5543;SDS011;2795;47.652;13.128;2022-07-01T05:26:58;16.13;;;6.20;;
5543;SDS011;2795;47.652;13.128;2022-07-01T05:29:26;16.00;;;6.13;;
5543;SDS011;2795;47.652;13.128;2022-07-01T05:31:52;12.57;;;5.90;;
5543;SDS011;2795;47.652;13.128;2022-07-01T05:34:19;14.63;;;5.50;;
5543;SDS011;2795;47.652;13.128;2022-07-01T05:36:45;15.03;;;5.37;;
5543;SDS011;2795;47.652;13.128;2022-07-01T05:39:12;12.80;;;6.53;;
5543;SDS011;2795;47.652;13.128;2022-07-01T05:41:39;14.17;;;5.40;;
5543;SDS011;2795;47.652;13.128;2022-07-01T05:44:05;15.73;;;6.20;;
5543;SDS011;2795;47.652;13.128;2022-07-01T05:46:32;13.87;;;6.00;;
5543;SDS011;2795;47.652;13.128;2022-07-01T05:48:59;14.33;;;5.90;;
5543;SDS011;2795;47.652;13.128;2022-07-01T05:51:26;17.37;;;6.23;;
5543;SDS011;2795;47.652;13.128;2022-07-01T05:53:52;16.53;;;6.20;;
5543;SDS011;2795;47.652;13.128;2022-07-01T05:56:19;12.20;;;5.30;;
5543;SDS011;2795;47.652;13.128;2022-07-01T05:58:46;13.30;;;6.70;;
5543;SDS011;2795;47.652;13.128;2022-07-01T06:01:13;14.13;;;5.30;;
5543;SDS011;2795;47.652;13.128;2022-07-01T06:03:40;8.80;;;4.47;;
5543;SDS011;2795;47.652;13.128;2022-07-01T06:06:07;10.87;;;5.20;;
5543;SDS011;2795;47.652;13.128;2022-07-01T06:08:34;13.53;;;5.83;;
5543;SDS011;2795;47.652;13.128;2022-07-01T06:11:01;17.53;;;6.20;;
5543;SDS011;2795;47.652;13.128;2022-07-01T06:13:27;10.80;;;5.57;;
5543;SDS011;2795;47.652;13.128;2022-07-01T06:15:55;17.93;;;5.97;;
5543;SDS011;2795;47.652;13.128;2022-07-01T06:18:25;11.53;;;5.53;;
5543;SDS011;2795;47.652;13.128;2022-07-01T06:20:52;15.50;;;6.17;;
5543;SDS011;2795;47.652;13.128;2022-07-01T06:23:18;10.37;;;5.37;;
5543;SDS011;2795;47.652;13.128;2022-07-01T06:25:45;13.13;;;5.20;;
5543;SDS011;2795;47.652;13.128;2022-07-01T06:28:12;11.97;;;5.30;;
5543;SDS011;2795;47.652;13.128;2022-07-01T06:30:38;11.30;;;5.40;;
5543;SDS011;2795;47.652;13.128;2022-07-01T06:33:10;13.80;;;5.67;;
5543;SDS011;2795;47.652;13.128;2022-07-01T06:35:38;18.93;;;4.50;;
5543;SDS011;2795;47.652;13.128;2022-07-01T06:38:04;12.20;;;5.23;;
5543;SDS011;2795;47.652;13.128;2022-07-01T06:40:31;9.07;;;4.93;;
5543;SDS011;2795;47.652;13.128;2022-07-01T06:42:58;10.40;;;4.60;;
5543;SDS011;2795;47.652;13.128;2022-07-01T06:45:24;9.33;;;4.97;;
5543;SDS011;2795;47.652;13.128;2022-07-01T06:47:51;11.43;;;5.03;;
5543;SDS011;2795;47.652;13.128;2022-07-01T06:50:17;14.10;;;5.63;;
5543;SDS011;2795;47.652;13.128;2022-07-01T06:52:44;14.30;;;5.57;;
5543;SDS011;2795;47.652;13.128;2022-07-01T06:55:10;8.07;;;4.87;;
5543;SDS011;2795;47.652;13.128;2022-07-01T06:57:37;8.40;;;5.23;;
5543;SDS011;2795;47.652;13.128;2022-07-01T07:00:04;11.00;;;4.90;;
5543;SDS011;2795;47.652;13.128;2022-07-01T07:02:31;13.87;;;5.50;;
5543;SDS011;2795;47.652;13.128;2022-07-01T07:04:58;10.73;;;4.63;;
5543;SDS011;2795;47.652;13.128;2022-07-01T07:07:27;14.83;;;5.67;;
5543;SDS011;2795;47.652;13.128;2022-07-01T07:09:54;9.37;;;4.47;;
5543;SDS011;2795;47.652;13.128;2022-07-01T07:12:23;11.60;;;5.07;;
5543;SDS011;2795;47.652;13.128;2022-07-01T07:14:50;12.30;;;5.37;;
5543;SDS011;2795;47.652;13.128;2022-07-01T07:17:16;10.10;;;5.27;;
5543;SDS011;2795;47.652;13.128;2022-07-01T07:19:43;11.90;;;4.87;;
5543;SDS011;2795;47.652;13.128;2022-07-01T07:22:10;9.03;;;4.87;;
5543;SDS011;2795;47.652;13.128;2022-07-01T07:24:36;8.13;;;4.53;;
5543;SDS011;2795;47.652;13.128;2022-07-01T07:27:04;21.23;;;5.40;;
5543;SDS011;2795;47.652;13.128;2022-07-01T07:29:30;11.40;;;5.00;;
5543;SDS011;2795;47.652;13.128;2022-07-01T07:31:57;12.90;;;5.40;;
5543;SDS011;2795;47.652;13.128;2022-07-01T07:34:24;10.27;;;4.53;;
5543;SDS011;2795;47.652;13.128;2022-07-01T07:36:50;11.93;;;5.10;;
5543;SDS011;2795;47.652;13.128;2022-07-01T07:39:17;6.47;;;4.40;;
5543;SDS011;2795;47.652;13.128;2022-07-01T07:41:44;9.50;;;4.33;;
5543;SDS011;2795;47.652;13.128;2022-07-01T07:44:10;6.47;;;4.47;;
5543;SDS011;2795;47.652;13.128;2022-07-01T07:46:37;11.87;;;4.70;;
5543;SDS011;2795;47.652;13.128;2022-07-01T07:49:03;9.77;;;4.30;;
5543;SDS011;2795;47.652;13.128;2022-07-01T07:51:30;9.43;;;4.90;;
5543;SDS011;2795;47.652;13.128;2022-07-01T07:53:57;8.73;;;5.20;;
5543;SDS011;2795;47.652;13.128;2022-07-01T07:56:23;10.50;;;4.87;;
5543;SDS011;2795;47.652;13.128;2022-07-01T07:58:50;15.53;;;4.53;;
5543;SDS011;2795;47.652;13.128;2022-07-01T08:01:16;7.33;;;4.50;;
5543;SDS011;2795;47.652;13.128;2022-07-01T08:03:43;7.20;;;4.17;;
5543;SDS011;2795;47.652;13.128;2022-07-01T08:06:11;6.10;;;4.23;;
5543;SDS011;2795;47.652;13.128;2022-07-01T08:08:38;7.07;;;4.60;;
5543;SDS011;2795;47.652;13.128;2022-07-01T08:11:05;11.33;;;5.13;;
5543;SDS011;2795;47.652;13.128;2022-07-01T08:13:32;9.50;;;4.50;;
5543;SDS011;2795;47.652;13.128;2022-07-01T08:15:58;11.10;;;4.50;;
5543;SDS011;2795;47.652;13.128;2022-07-01T08:18:25;6.87;;;4.23;;
5543;SDS011;2795;47.652;13.128;2022-07-01T08:20:51;19.83;;;4.87;;
5543;SDS011;2795;47.652;13.128;2022-07-01T08:23:21;7.40;;;4.53;;
5543;SDS011;2795;47.652;13.128;2022-07-01T08:25:49;7.33;;;4.20;;
5543;SDS011;2795;47.652;13.128;2022-07-01T08:28:16;5.63;;;3.73;;
5543;SDS011;2795;47.652;13.128;2022-07-01T08:30:43;11.20;;;4.43;;
5543;SDS011;2795;47.652;13.128;2022-07-01T08:33:10;3.70;;;3.40;;
5543;SDS011;2795;47.652;13.128;2022-07-01T08:35:37;12.93;;;4.50;;
5543;SDS011;2795;47.652;13.128;2022-07-01T08:38:04;9.23;;;3.87;;
5543;SDS011;2795;47.652;13.128;2022-07-01T08:40:31;10.93;;;4.83;;
5543;SDS011;2795;47.652;13.128;2022-07-01T08:43:02;11.33;;;4.03;;
5543;SDS011;2795;47.652;13.128;2022-07-01T08:45:31;16.70;;;5.27;;
5543;SDS011;2795;47.652;13.128;2022-07-01T08:48:00;8.93;;;4.50;;
5543;SDS011;2795;47.652;13.128;2022-07-01T08:50:30;12.97;;;4.70;;
5543;SDS011;2795;47.652;13.128;2022-07-01T08:52:59;13.20;;;4.93;;
5543;SDS011;2795;47.652;13.128;2022-07-01T08:55:26;10.47;;;4.20;;
5543;SDS011;2795;47.652;13.128;2022-07-01T08:57:53;3.77;;;3.30;;
5543;SDS011;2795;47.652;13.128;2022-07-01T09:00:19;11.77;;;4.60;;
5543;SDS011;2795;47.652;13.128;2022-07-01T09:05:49;7.57;;;3.90;;
5543;SDS011;2795;47.652;13.128;2022-07-01T09:08:17;10.73;;;4.00;;
5543;SDS011;2795;47.652;13.128;2022-07-01T09:10:45;30.67;;;7.13;;
5543;SDS011;2795;47.652;13.128;2022-07-01T09:13:12;6.90;;;4.00;;
5543;SDS011;2795;47.652;13.128;2022-07-01T09:15:40;4.97;;;3.60;;
5543;SDS011;2795;47.652;13.128;2022-07-01T09:18:14;5.80;;;3.87;;
5543;SDS011;2795;47.652;13.128;2022-07-01T09:20:46;9.53;;;4.43;;
5543;SDS011;2795;47.652;13.128;2022-07-01T09:23:17;8.70;;;3.70;;
5543;SDS011;2795;47.652;13.128;2022-07-01T09:25:49;4.57;;;2.87;;
5543;SDS011;2795;47.652;13.128;2022-07-01T09:28:24;7.63;;;4.20;;
5543;SDS011;2795;47.652;13.128;2022-07-01T09:30:53;11.30;;;3.67;;
5543;SDS011;2795;47.652;13.128;2022-07-01T09:33:21;11.90;;;4.30;;
5543;SDS011;2795;47.652;13.128;2022-07-01T09:35:50;9.00;;;4.03;;
5543;SDS011;2795;47.652;13.128;2022-07-01T09:38:22;5.53;;;3.20;;
5543;SDS011;2795;47.652;13.128;2022-07-01T09:40:58;8.87;;;3.43;;
5543;SDS011;2795;47.652;13.128;2022-07-01T09:43:26;7.20;;;3.80;;
5543;SDS011;2795;47.652;13.128;2022-07-01T09:51:00;11.33;;;4.20;;
5543;SDS011;2795;47.652;13.128;2022-07-01T09:53:29;8.07;;;3.70;;
5543;SDS011;2795;47.652;13.128;2022-07-01T09:55:56;8.83;;;3.63;;
5543;SDS011;2795;47.652;13.128;2022-07-01T09:58:22;4.73;;;3.10;;
5543;SDS011;2795;47.652;13.128;2022-07-01T10:00:49;6.03;;;3.13;;
5543;SDS011;2795;47.652;13.128;2022-07-01T10:03:18;5.60;;;3.07;;
5543;SDS011;2795;47.652;13.128;2022-07-01T10:14:51;8.30;;;3.47;;
5543;SDS011;2795;47.652;13.128;2022-07-01T10:17:29;13.60;;;4.10;;
5543;SDS011;2795;47.652;13.128;2022-07-01T10:19:57;4.83;;;3.00;;
5543;SDS011;2795;47.652;13.128;2022-07-01T10:22:34;10.07;;;4.10;;
5543;SDS011;2795;47.652;13.128;2022-07-01T10:31:04;5.27;;;2.83;;
5543;SDS011;2795;47.652;13.128;2022-07-01T10:36:28;12.27;;;3.70;;
5543;SDS011;2795;47.652;13.128;2022-07-01T10:41:33;9.20;;;3.43;;
5543;SDS011;2795;47.652;13.128;2022-07-01T10:44:02;6.10;;;3.10;;
5543;SDS011;2795;47.652;13.128;2022-07-01T10:46:40;11.27;;;3.70;;
5543;SDS011;2795;47.652;13.128;2022-07-01T10:49:08;4.93;;;3.07;;
5543;SDS011;2795;47.652;13.128;2022-07-01T10:51:47;11.07;;;3.33;;
5543;SDS011;2795;47.652;13.128;2022-07-01T10:54:44;5.93;;;2.87;;
5543;SDS011;2795;47.652;13.128;2022-07-01T10:59:51;3.80;;;2.77;;
5543;SDS011;2795;47.652;13.128;2022-07-01T11:02:19;22.30;;;5.20;;
5543;SDS011;2795;47.652;13.128;2022-07-01T11:04:49;6.13;;;3.10;;
5543;SDS011;2795;47.652;13.128;2022-07-01T11:07:16;18.97;;;4.87;;
5543;SDS011;2795;47.652;13.128;2022-07-01T11:09:43;4.30;;;3.00;;
5543;SDS011;2795;47.652;13.128;2022-07-01T11:12:09;5.93;;;2.60;;
5543;SDS011;2795;47.652;13.128;2022-07-01T11:14:36;8.07;;;3.80;;
5543;SDS011;2795;47.652;13.128;2022-07-01T11:17:05;9.60;;;3.80;;
5543;SDS011;2795;47.652;13.128;2022-07-01T11:19:32;8.23;;;3.50;;
5543;SDS011;2795;47.652;13.128;2022-07-01T11:21:59;8.13;;;3.30;;
5543;SDS011;2795;47.652;13.128;2022-07-01T11:24:26;5.43;;;3.30;;
5543;SDS011;2795;47.652;13.128;2022-07-01T11:26:59;9.93;;;4.13;;
5543;SDS011;2795;47.652;13.128;2022-07-01T11:29:35;6.43;;;3.53;;
5543;SDS011;2795;47.652;13.128;2022-07-01T11:32:03;8.57;;;3.87;;
5543;SDS011;2795;47.652;13.128;2022-07-01T11:34:30;9.13;;;3.97;;
5543;SDS011;2795;47.652;13.128;2022-07-01T11:36:57;12.70;;;4.10;;
5543;SDS011;2795;47.652;13.128;2022-07-01T11:39:46;7.40;;;3.30;;
5543;SDS011;2795;47.652;13.128;2022-07-01T11:42:13;6.53;;;2.90;;
5543;SDS011;2795;47.652;13.128;2022-07-01T11:44:43;5.87;;;2.33;;
5543;SDS011;2795;47.652;13.128;2022-07-01T11:47:11;6.77;;;2.17;;
5543;SDS011;2795;47.652;13.128;2022-07-01T11:49:44;8.07;;;2.37;;
5543;SDS011;2795;47.652;13.128;2022-07-01T11:52:15;8.03;;;2.53;;
5543;SDS011;2795;47.652;13.128;2022-07-01T11:54:53;5.30;;;1.97;;
5543;SDS011;2795;47.652;13.128;2022-07-01T11:57:40;10.10;;;2.17;;
5543;SDS011;2795;47.652;13.128;2022-07-01T12:00:08;8.97;;;2.37;;
5543;SDS011;2795;47.652;13.128;2022-07-01T12:02:38;5.87;;;1.90;;
5543;SDS011;2795;47.652;13.128;2022-07-01T12:05:06;5.10;;;1.80;;
5543;SDS011;2795;47.652;13.128;2022-07-01T12:07:33;11.37;;;2.70;;
5543;SDS011;2795;47.652;13.128;2022-07-01T12:09:59;12.10;;;2.30;;
5543;SDS011;2795;47.652;13.128;2022-07-01T12:12:27;6.93;;;2.00;;
5543;SDS011;2795;47.652;13.128;2022-07-01T12:14:55;6.57;;;1.90;;
5543;SDS011;2795;47.652;13.128;2022-07-01T12:17:23;8.00;;;2.00;;
5543;SDS011;2795;47.652;13.128;2022-07-01T12:19:51;4.33;;;1.47;;
5543;SDS011;2795;47.652;13.128;2022-07-01T12:22:22;8.10;;;1.90;;
5543;SDS011;2795;47.652;13.128;2022-07-01T12:24:51;11.03;;;1.90;;
5543;SDS011;2795;47.652;13.128;2022-07-01T12:27:20;16.37;;;2.37;;
5543;SDS011;2795;47.652;13.128;2022-07-01T12:29:49;3.93;;;1.60;;
5543;SDS011;2795;47.652;13.128;2022-07-01T12:32:18;6.73;;;1.80;;
5543;SDS011;2795;47.652;13.128;2022-07-01T12:37:33;7.77;;;1.77;;
5543;SDS011;2795;47.652;13.128;2022-07-01T12:40:04;6.00;;;1.80;;
5543;SDS011;2795;47.652;13.128;2022-07-01T12:42:45;6.60;;;1.60;;
5543;SDS011;2795;47.652;13.128;2022-07-01T12:45:13;4.63;;;1.60;;
5543;SDS011;2795;47.652;13.128;2022-07-01T12:47:45;4.73;;;1.50;;
5543;SDS011;2795;47.652;13.128;2022-07-01T12:50:16;3.37;;;1.50;;
5543;SDS011;2795;47.652;13.128;2022-07-01T12:52:55;3.53;;;1.30;;
5543;SDS011;2795;47.652;13.128;2022-07-01T12:55:26;15.17;;;2.83;;
5543;SDS011;2795;47.652;13.128;2022-07-01T12:57:54;5.03;;;1.47;;
5543;SDS011;2795;47.652;13.128;2022-07-01T13:00:22;9.93;;;2.07;;
5543;SDS011;2795;47.652;13.128;2022-07-01T13:02:53;21.10;;;3.07;;
5543;SDS011;2795;47.652;13.128;2022-07-01T13:05:22;13.10;;;2.37;;
5543;SDS011;2795;47.652;13.128;2022-07-01T13:07:49;3.33;;;1.30;;
5543;SDS011;2795;47.652;13.128;2022-07-01T13:10:16;9.13;;;1.90;;
5543;SDS011;2795;47.652;13.128;2022-07-01T13:12:43;5.70;;;1.90;;
5543;SDS011;2795;47.652;13.128;2022-07-01T13:15:14;6.93;;;1.83;;
5543;SDS011;2795;47.652;13.128;2022-07-01T13:17:41;4.03;;;1.47;;
5543;SDS011;2795;47.652;13.128;2022-07-01T13:20:08;7.87;;;1.90;;
5543;SDS011;2795;47.652;13.128;2022-07-01T13:22:35;7.73;;;2.03;;
5543;SDS011;2795;47.652;13.128;2022-07-01T13:25:03;6.07;;;1.80;;
5543;SDS011;2795;47.652;13.128;2022-07-01T13:27:30;8.50;;;2.00;;
5543;SDS011;2795;47.652;13.128;2022-07-01T13:29:56;8.03;;;1.93;;
5543;SDS011;2795;47.652;13.128;2022-07-01T13:32:23;5.73;;;1.77;;
5543;SDS011;2795;47.652;13.128;2022-07-01T13:34:50;5.30;;;1.60;;
5543;SDS011;2795;47.652;13.128;2022-07-01T13:37:16;12.40;;;1.87;;
5543;SDS011;2795;47.652;13.128;2022-07-01T13:39:43;2.60;;;1.37;;
5543;SDS011;2795;47.652;13.128;2022-07-01T13:42:10;7.33;;;2.00;;
5543;SDS011;2795;47.652;13.128;2022-07-01T13:44:36;7.60;;;1.87;;
5543;SDS011;2795;47.652;13.128;2022-07-01T13:47:03;5.10;;;1.67;;
5543;SDS011;2795;47.652;13.128;2022-07-01T13:49:35;6.97;;;1.90;;
5543;SDS011;2795;47.652;13.128;2022-07-01T13:52:03;5.63;;;1.87;;
5543;SDS011;2795;47.652;13.128;2022-07-01T13:54:30;6.60;;;1.80;;
5543;SDS011;2795;47.652;13.128;2022-07-01T13:56:57;3.57;;;1.43;;
5543;SDS011;2795;47.652;13.128;2022-07-01T13:59:23;8.03;;;1.77;;
5543;SDS011;2795;47.652;13.128;2022-07-01T14:01:50;11.90;;;2.60;;
5543;SDS011;2795;47.652;13.128;2022-07-01T14:04:16;7.70;;;1.53;;
5543;SDS011;2795;47.652;13.128;2022-07-01T14:06:43;4.53;;;1.73;;
5543;SDS011;2795;47.652;13.128;2022-07-01T14:09:10;3.50;;;1.40;;
5543;SDS011;2795;47.652;13.128;2022-07-01T14:11:37;8.67;;;1.93;;
5543;SDS011;2795;47.652;13.128;2022-07-01T14:14:03;5.80;;;1.73;;
5543;SDS011;2795;47.652;13.128;2022-07-01T14:16:30;17.87;;;3.10;;
5543;SDS011;2795;47.652;13.128;2022-07-01T14:18:57;6.60;;;1.73;;
5543;SDS011;2795;47.652;13.128;2022-07-01T14:21:24;5.93;;;1.60;;
5543;SDS011;2795;47.652;13.128;2022-07-01T14:23:51;3.00;;;1.33;;
5543;SDS011;2795;47.652;13.128;2022-07-01T14:26:21;6.27;;;1.97;;
5543;SDS011;2795;47.652;13.128;2022-07-01T14:28:48;7.33;;;1.90;;
5543;SDS011;2795;47.652;13.128;2022-07-01T14:31:14;4.00;;;1.70;;
5543;SDS011;2795;47.652;13.128;2022-07-01T14:33:41;7.60;;;1.90;;
5543;SDS011;2795;47.652;13.128;2022-07-01T14:36:08;14.87;;;2.43;;
5543;SDS011;2795;47.652;13.128;2022-07-01T14:38:34;11.60;;;2.40;;
5543;SDS011;2795;47.652;13.128;2022-07-01T14:41:01;20.43;;;3.03;;
5543;SDS011;2795;47.652;13.128;2022-07-01T14:43:28;8.83;;;2.47;;
5543;SDS011;2795;47.652;13.128;2022-07-01T14:45:56;6.37;;;2.03;;
5543;SDS011;2795;47.652;13.128;2022-07-01T14:48:22;9.87;;;2.30;;
5543;SDS011;2795;47.652;13.128;2022-07-01T14:50:49;3.83;;;1.83;;
5543;SDS011;2795;47.652;13.128;2022-07-01T14:53:15;5.93;;;1.77;;
5543;SDS011;2795;47.652;13.128;2022-07-01T14:55:42;7.07;;;2.20;;
5543;SDS011;2795;47.652;13.128;2022-07-01T14:58:09;9.27;;;2.43;;
5543;SDS011;2795;47.652;13.128;2022-07-01T15:00:35;17.43;;;3.60;;
5543;SDS011;2795;47.652;13.128;2022-07-01T15:03:03;20.57;;;2.80;;
5543;SDS011;2795;47.652;13.128;2022-07-01T15:05:30;11.63;;;2.80;;
5543;SDS011;2795;47.652;13.128;2022-07-01T15:07:59;7.23;;;2.30;;
5543;SDS011;2795;47.652;13.128;2022-07-01T15:10:25;16.43;;;3.40;;
5543;SDS011;2795;47.652;13.128;2022-07-01T15:12:52;8.70;;;2.30;;
5543;SDS011;2795;47.652;13.128;2022-07-01T15:15:19;10.40;;;2.67;;
5543;SDS011;2795;47.652;13.128;2022-07-01T15:17:46;7.17;;;2.37;;
5543;SDS011;2795;47.652;13.128;2022-07-01T15:20:13;6.67;;;1.90;;
5543;SDS011;2795;47.652;13.128;2022-07-01T15:22:40;10.80;;;2.87;;
5543;SDS011;2795;47.652;13.128;2022-07-01T15:25:07;9.43;;;2.23;;
5543;SDS011;2795;47.652;13.128;2022-07-01T15:27:34;12.03;;;2.70;;
5543;SDS011;2795;47.652;13.128;2022-07-01T15:30:01;13.27;;;3.40;;
5543;SDS011;2795;47.652;13.128;2022-07-01T15:32:29;11.53;;;3.20;;
5543;SDS011;2795;47.652;13.128;2022-07-01T15:34:56;14.80;;;3.17;;